Time;durP1;ratioP1;P1;durP2;ratioP2;P2;SDS_P1;SDS_P2;PMS_P1;PMS_P2;Temp;Humidity;BMP_temperature;BMP_pressure;BME280_temperature;BME280_humidity;BME280_pressure;Samples;Min_cycle;Max_cycle;Signal;HPM_P1;HPM_P2
2022/02/14 00:02:22;;;;;;;13.70;5.90;;;11.10;72.70;;;;;;4946602;28;20090;-73
2022/02/14 00:04:48;;;;;;;12.80;5.85;;;11.10;72.60;;;;;;4947489;28;20049;-74
2022/02/14 00:07:13;;;;;;;11.82;5.75;;;11.10;72.50;;;;;;4946894;28;20031;-76
2022/02/14 00:09:39;;;;;;;16.20;6.28;;;11.10;72.60;;;;;;4946202;28;20507;-76
2022/02/14 00:12:05;;;;;;;12.18;5.65;;;11.10;72.60;;;;;;4937807;28;20466;-74
2022/02/14 00:14:31;;;;;;;10.70;5.68;;;11.10;72.70;;;;;;4945074;28;20503;-76
2022/02/14 00:16:57;;;;;;;13.50;5.55;;;11.00;72.90;;;;;;4946543;28;20042;-77
2022/02/14 00:19:23;;;;;;;11.05;5.53;;;11.00;72.70;;;;;;4947875;28;20093;-76
2022/02/14 00:21:49;;;;;;;13.25;5.32;;;11.00;72.70;;;;;;4946922;28;20593;-75
2022/02/14 00:24:15;;;;;;;8.73;4.90;;;11.00;72.80;;;;;;4945664;28;20043;-75
2022/02/14 00:26:41;;;;;;;14.50;5.00;;;11.00;72.70;;;;;;4950460;28;20042;-78
2022/02/14 00:29:07;;;;;;;13.55;5.43;;;11.00;72.70;;;;;;4947586;28;20606;-79
2022/02/14 00:31:33;;;;;;;10.00;4.88;;;11.00;72.90;;;;;;4948058;28;20061;-78
2022/02/14 00:33:59;;;;;;;10.27;5.28;;;11.00;72.80;;;;;;4947138;28;20050;-78
2022/02/14 00:36:25;;;;;;;15.07;5.47;;;10.90;73.00;;;;;;4950489;28;20131;-75
2022/02/14 00:38:51;;;;;;;12.15;4.90;;;10.90;72.90;;;;;;4949640;28;20038;-74
2022/02/14 00:41:16;;;;;;;11.00;4.50;;;10.90;72.80;;;;;;4950194;28;20079;-73
2022/02/14 00:43:42;;;;;;;11.43;5.13;;;10.90;72.80;;;;;;4949668;28;20038;-73
2022/02/14 00:46:08;;;;;;;12.90;5.63;;;10.90;72.90;;;;;;4948304;28;20036;-74
2022/02/14 00:48:34;;;;;;;13.52;5.07;;;10.90;72.90;;;;;;4948972;28;20036;-74
2022/02/14 00:51:00;;;;;;;10.98;5.53;;;10.90;72.90;;;;;;4949993;28;20045;-75
2022/02/14 00:53:26;;;;;;;13.05;4.70;;;10.90;72.80;;;;;;4941645;28;20545;-75
2022/02/14 00:55:52;;;;;;;8.90;4.55;;;10.90;72.80;;;;;;4947804;28;20352;-79
2022/02/14 00:58:18;;;;;;;12.02;4.60;;;10.90;72.70;;;;;;4946473;28;20035;-77
2022/02/14 01:00:44;;;;;;;9.93;4.25;;;10.90;72.70;;;;;;4948441;28;20537;-75
2022/02/14 01:03:10;;;;;;;9.57;4.80;;;10.90;72.60;;;;;;4947832;28;20035;-74
2022/02/14 01:05:36;;;;;;;11.82;4.88;;;10.90;72.70;;;;;;4957532;28;20046;-73
2022/02/14 01:08:04;;;;;;;13.43;5.20;;;10.90;72.80;;;;;;4948907;28;20031;-76
2022/02/14 01:10:29;;;;;;;8.90;4.63;;;10.80;72.80;;;;;;4945751;28;20507;-78
2022/02/14 01:12:55;;;;;;;12.43;4.80;;;10.80;72.80;;;;;;4948253;28;20131;-73
2022/02/14 01:15:21;;;;;;;10.18;4.43;;;10.90;72.80;;;;;;4956966;28;20083;-74
2022/02/14 01:17:47;;;;;;;12.30;4.88;;;10.90;72.80;;;;;;4946981;28;20043;-75
2022/02/14 01:20:13;;;;;;;9.63;3.85;;;10.90;72.80;;;;;;4947793;28;20534;-75
2022/02/14 01:22:40;;;;;;;9.40;3.90;;;10.90;72.70;;;;;;4946660;28;20051;-77
2022/02/14 01:25:07;;;;;;;10.48;4.47;;;10.90;72.90;;;;;;4939974;28;20041;-74
2022/02/14 01:27:34;;;;;;;11.75;4.38;;;10.90;72.60;;;;;;4947557;28;20039;-75
2022/02/14 01:29:59;;;;;;;9.38;3.70;;;11.00;72.20;;;;;;4947692;28;20038;-76
2022/02/14 01:32:25;;;;;;;10.23;4.45;;;11.10;72.00;;;;;;4948432;28;20031;-73
2022/02/14 01:34:52;;;;;;;8.27;3.65;;;11.10;72.00;;;;;;4947685;28;20074;-74
2022/02/14 01:37:18;;;;;;;9.13;4.00;;;11.10;71.90;;;;;;4945938;28;20078;-74
2022/02/14 01:39:44;;;;;;;11.23;3.90;;;11.10;72.00;;;;;;4947936;28;20110;-74
2022/02/14 01:42:11;;;;;;;11.05;3.95;;;11.00;72.00;;;;;;4947530;28;20690;-78
2022/02/14 01:44:41;;;;;;;7.85;3.45;;;11.00;72.30;;;;;;4945400;28;20092;-75
2022/02/14 01:47:15;;;;;;;12.00;3.70;;;11.00;72.40;;;;;;4946919;28;20050;-77
2022/02/14 01:49:42;;;;;;;9.20;3.53;;;11.10;72.20;;;;;;4948045;28;20031;-75
2022/02/14 01:52:09;;;;;;;9.70;3.72;;;11.10;72.10;;;;;;4945629;28;20544;-77
2022/02/14 01:54:36;;;;;;;9.63;3.70;;;11.10;72.00;;;;;;4947099;28;20039;-75
2022/02/14 01:57:04;;;;;;;8.43;4.05;;;11.10;71.80;;;;;;4947229;28;20054;-74
2022/02/14 01:59:30;;;;;;;11.68;3.95;;;11.10;71.90;;;;;;4952978;28;20150;-73
2022/02/14 02:01:56;;;;;;;8.85;3.92;;;11.10;71.80;;;;;;4948045;28;20053;-75
2022/02/14 02:04:22;;;;;;;12.55;4.15;;;11.10;71.90;;;;;;4945172;28;20467;-74
2022/02/14 02:06:47;;;;;;;10.88;4.55;;;11.10;71.80;;;;;;4946606;28;20106;-77
2022/02/14 02:09:13;;;;;;;8.57;3.40;;;11.10;71.80;;;;;;4957671;28;20117;-73
2022/02/14 02:14:24;;;;;;;8.93;3.95;;;11.20;71.70;;;;;;4949339;28;20058;-75
2022/02/14 02:16:50;;;;;;;10.77;3.72;;;11.20;71.60;;;;;;4951605;28;20046;-74
2022/02/14 02:19:17;;;;;;;9.68;3.58;;;11.20;71.80;;;;;;4946483;28;20046;-76
2022/02/14 02:21:50;;;;;;;10.52;4.35;;;11.10;71.90;;;;;;4949199;28;20046;-79
2022/02/14 02:24:19;;;;;;;7.70;3.03;;;11.20;71.70;;;;;;4947533;28;20614;-73
2022/02/14 02:26:57;;;;;;;9.93;4.07;;;11.30;71.80;;;;;;4945956;28;20154;-73
2022/02/14 02:29:23;;;;;;;9.73;3.65;;;11.30;72.40;;;;;;4946399;28;20070;-74
2022/02/14 02:31:50;;;;;;;10.77;3.60;;;11.20;72.80;;;;;;4945689;28;20467;-72
2022/02/14 02:34:16;;;;;;;8.57;3.22;;;11.20;73.00;;;;;;4946881;28;20042;-74
2022/02/14 02:36:55;;;;;;;10.05;3.67;;;11.20;73.00;;;;;;4947250;28;20171;-75
2022/02/14 02:39:21;;;;;;;14.13;3.70;;;11.20;72.70;;;;;;4942614;28;20086;-76
2022/02/14 02:41:47;;;;;;;9.70;3.63;;;11.20;72.40;;;;;;4945425;28;20043;-74
2022/02/14 02:44:13;;;;;;;11.15;3.83;;;11.30;72.30;;;;;;4945691;28;20341;-75
2022/02/14 02:46:40;;;;;;;6.80;3.35;;;11.30;72.20;;;;;;4948417;28;20082;-74
2022/02/14 02:49:14;;;;;;;9.52;3.45;;;11.30;72.20;;;;;;4937427;28;20077;-74
2022/02/14 02:51:41;;;;;;;10.35;3.25;;;11.30;72.20;;;;;;4946773;28;20144;-78
2022/02/14 02:54:08;;;;;;;9.30;3.47;;;11.30;72.20;;;;;;4945541;28;20101;-75
2022/02/14 02:56:35;;;;;;;6.28;3.33;;;11.30;72.30;;;;;;4946072;28;20675;-75
2022/02/14 02:59:01;;;;;;;7.72;3.40;;;11.40;72.20;;;;;;4948653;28;20043;-73
2022/02/14 03:01:27;;;;;;;11.15;3.45;;;11.40;72.20;;;;;;4947608;28;20106;-74
2022/02/14 03:03:53;;;;;;;9.40;3.90;;;11.40;72.40;;;;;;4943803;28;20368;-77
2022/02/14 03:06:20;;;;;;;7.90;3.30;;;11.30;72.60;;;;;;4949067;28;20027;-75
2022/02/14 03:08:45;;;;;;;10.55;3.78;;;11.30;72.60;;;;;;4946507;28;20038;-76
2022/02/14 03:11:11;;;;;;;8.98;3.42;;;11.30;72.70;;;;;;4947485;28;20043;-73
2022/02/14 03:13:37;;;;;;;10.20;3.33;;;11.30;72.80;;;;;;4947557;28;20458;-73
2022/02/14 03:16:02;;;;;;;10.00;3.83;;;11.30;73.30;;;;;;4942294;28;20053;-75
2022/02/14 03:18:28;;;;;;;12.70;4.13;;;11.30;73.40;;;;;;4946039;28;20074;-75
2022/02/14 03:20:54;;;;;;;11.25;3.67;;;11.30;73.50;;;;;;4958386;28;20031;-72
2022/02/14 03:23:20;;;;;;;8.95;4.00;;;11.20;73.60;;;;;;4951350;28;20042;-72
2022/02/14 03:25:45;;;;;;;11.23;3.85;;;11.20;73.60;;;;;;4951605;28;20533;-75
2022/02/14 03:28:11;;;;;;;8.82;4.13;;;11.20;73.60;;;;;;4947408;28;20037;-72
2022/02/14 03:30:37;;;;;;;9.10;4.28;;;11.30;73.50;;;;;;4957563;28;20041;-73
2022/02/14 03:33:02;;;;;;;8.02;3.67;;;11.30;73.40;;;;;;4935541;28;20035;-76
2022/02/14 03:35:28;;;;;;;9.13;3.88;;;11.20;73.40;;;;;;4945508;28;20039;-73
2022/02/14 03:37:56;;;;;;;8.05;3.70;;;11.20;73.50;;;;;;4944361;28;20035;-72
2022/02/14 03:40:22;;;;;;;10.30;3.90;;;11.20;73.50;;;;;;4953738;28;20427;-77
2022/02/14 03:42:47;;;;;;;12.23;3.83;;;11.30;73.50;;;;;;4947706;28;20035;-74
2022/02/14 03:45:14;;;;;;;9.00;3.22;;;11.30;73.80;;;;;;4954513;28;20069;-73
2022/02/14 03:47:39;;;;;;;8.82;4.00;;;11.20;74.10;;;;;;4950569;28;20125;-73
2022/02/14 03:50:06;;;;;;;10.00;3.58;;;11.20;74.00;;;;;;4958993;28;20035;-73
2022/02/14 03:52:31;;;;;;;6.72;3.15;;;11.20;74.00;;;;;;4965827;28;20038;-73
2022/02/14 03:54:57;;;;;;;8.68;3.45;;;11.20;74.00;;;;;;4950632;28;20054;-73
2022/02/14 03:57:22;;;;;;;9.27;3.53;;;11.20;74.00;;;;;;4952800;28;20390;-76
2022/02/14 03:59:48;;;;;;;8.27;3.70;;;11.20;74.00;;;;;;4956451;28;20047;-75
2022/02/14 04:02:14;;;;;;;12.70;3.92;;;11.20;74.00;;;;;;4947444;28;20513;-73
2022/02/14 04:04:39;;;;;;;10.23;3.75;;;11.20;74.10;;;;;;4945698;28;20117;-76
2022/02/14 04:07:05;;;;;;;9.25;3.80;;;11.20;74.20;;;;;;4962104;28;20774;-75
2022/02/14 04:09:31;;;;;;;7.03;3.28;;;11.20;74.90;;;;;;4947017;28;20395;-74
2022/02/14 04:11:57;;;;;;;7.68;3.33;;;11.20;75.20;;;;;;4952814;28;20042;-76
2022/02/14 04:14:22;;;;;;;8.40;3.67;;;11.10;75.60;;;;;;4951528;28;20062;-76
2022/02/14 04:16:48;;;;;;;8.95;4.22;;;11.10;75.60;;;;;;4965988;28;20119;-72
2022/02/14 04:19:14;;;;;;;9.57;3.97;;;11.10;75.90;;;;;;4947892;28;20106;-73
2022/02/14 04:21:39;;;;;;;7.53;3.22;;;11.10;76.00;;;;;;4943937;28;20042;-74
2022/02/14 04:24:05;;;;;;;8.00;3.83;;;11.10;76.00;;;;;;4954412;28;20043;-73
2022/02/14 04:26:31;;;;;;;8.25;4.03;;;11.10;76.10;;;;;;4937994;28;20113;-76
2022/02/14 04:28:56;;;;;;;9.45;3.72;;;11.10;76.10;;;;;;4940387;28;20138;-75
2022/02/14 04:31:22;;;;;;;8.93;3.65;;;11.10;76.10;;;;;;4942875;28;20377;-76
2022/02/14 04:33:47;;;;;;;10.00;3.83;;;11.10;76.00;;;;;;4944523;28;20038;-75
2022/02/14 04:36:13;;;;;;;10.10;4.28;;;11.10;76.20;;;;;;4944865;28;20046;-74
2022/02/14 04:38:39;;;;;;;10.07;4.03;;;11.10;76.10;;;;;;4945387;28;20102;-74
2022/02/14 04:41:04;;;;;;;10.25;3.75;;;11.10;76.20;;;;;;4940772;28;20570;-78
2022/02/14 04:43:30;;;;;;;10.52;4.50;;;11.10;76.40;;;;;;4944748;28;20039;-75
2022/02/14 04:45:56;;;;;;;10.02;3.70;;;11.10;76.50;;;;;;4946007;28;20078;-80
2022/02/14 04:48:21;;;;;;;12.98;4.47;;;11.10;77.00;;;;;;4943060;28;20039;-74
2022/02/14 04:50:47;;;;;;;8.93;3.63;;;11.10;77.30;;;;;;4953375;28;20517;-75
2022/02/14 04:53:12;;;;;;;13.75;5.43;;;11.10;77.50;;;;;;4945620;28;20170;-76
2022/02/14 04:55:38;;;;;;;7.93;3.58;;;11.00;79.40;;;;;;4951233;28;20047;-73
2022/02/14 04:58:04;;;;;;;6.00;2.85;;;10.80;81.70;;;;;;4942639;28;20046;-73
2022/02/14 05:00:31;;;;;;;7.07;2.97;;;10.60;83.20;;;;;;4953453;28;20054;-74
2022/02/14 05:02:56;;;;;;;7.72;3.25;;;10.50;84.00;;;;;;4945796;28;20559;-74
2022/02/14 05:05:22;;;;;;;5.88;2.85;;;10.30;84.70;;;;;;4951079;28;20042;-73
2022/02/14 05:07:50;;;;;;;8.40;3.15;;;10.20;85.40;;;;;;4950609;28;20039;-72
2022/02/14 05:10:17;;;;;;;6.20;3.22;;;10.10;85.80;;;;;;4946193;28;20466;-77
2022/02/14 05:12:42;;;;;;;7.57;3.20;;;10.10;86.50;;;;;;4948311;28;20105;-75
2022/02/14 05:15:09;;;;;;;8.82;3.72;;;10.10;86.80;;;;;;4948798;28;20074;-76
2022/02/14 05:17:35;;;;;;;6.40;2.83;;;9.90;87.10;;;;;;4947390;28;20202;-77
2022/02/14 05:20:03;;;;;;;7.32;2.95;;;9.90;87.20;;;;;;4949321;28;20478;-74
2022/02/14 05:22:28;;;;;;;6.65;3.58;;;9.80;87.40;;;;;;4940800;28;21286;-72
2022/02/14 05:24:54;;;;;;;8.45;3.72;;;9.70;87.80;;;;;;4946518;28;20039;-73
2022/02/14 05:27:20;;;;;;;9.25;4.25;;;9.70;87.80;;;;;;4940050;28;20118;-75
2022/02/14 05:29:45;;;;;;;8.77;3.95;;;9.70;87.90;;;;;;4946789;28;20044;-74
2022/02/14 05:32:12;;;;;;;6.57;4.13;;;9.70;88.00;;;;;;4954321;28;20031;-77
2022/02/14 05:34:38;;;;;;;7.82;3.83;;;9.70;88.10;;;;;;4958745;28;20050;-76
2022/02/14 05:37:04;;;;;;;7.88;3.72;;;9.60;88.10;;;;;;4944297;28;20949;-73
2022/02/14 05:39:30;;;;;;;7.97;3.65;;;9.60;88.00;;;;;;4944777;28;20462;-73
2022/02/14 05:41:55;;;;;;;6.57;3.22;;;9.60;88.10;;;;;;4945718;28;20077;-75
2022/02/14 05:44:21;;;;;;;6.65;3.20;;;9.60;88.10;;;;;;4940995;28;20047;-74
2022/02/14 05:46:47;;;;;;;6.88;2.92;;;9.60;88.10;;;;;;4947463;28;20382;-74
2022/02/14 05:49:12;;;;;;;5.57;2.88;;;9.60;88.20;;;;;;4946630;28;20037;-73
2022/02/14 05:51:38;;;;;;;6.55;3.08;;;9.60;88.20;;;;;;4948380;28;20031;-76
2022/02/14 05:54:05;;;;;;;6.10;2.97;;;9.60;88.30;;;;;;4944333;28;20049;-76
2022/02/14 05:56:31;;;;;;;5.80;2.63;;;9.60;88.40;;;;;;4947067;28;20097;-74
2022/02/14 05:58:56;;;;;;;5.93;3.03;;;9.50;88.70;;;;;;4943492;28;20535;-74
2022/02/14 06:01:22;;;;;;;4.47;2.45;;;9.50;88.70;;;;;;4941386;28;20141;-75
2022/02/14 06:03:48;;;;;;;5.78;3.00;;;9.50;88.90;;;;;;4942332;28;20049;-73
2022/02/14 06:06:13;;;;;;;5.70;2.70;;;9.40;89.00;;;;;;4939625;28;20034;-75
2022/02/14 06:08:39;;;;;;;5.75;3.30;;;9.40;89.20;;;;;;4944561;28;20129;-77
2022/02/14 06:11:05;;;;;;;8.43;4.00;;;9.30;89.30;;;;;;4940278;28;20478;-74
2022/02/14 06:13:31;;;;;;;6.85;3.47;;;9.30;89.20;;;;;;4942312;28;20426;-76
2022/02/14 06:15:57;;;;;;;7.70;3.17;;;9.30;89.10;;;;;;4945126;28;20043;-73
2022/02/14 06:18:23;;;;;;;7.40;3.10;;;9.20;89.00;;;;;;4944764;28;20050;-73
2022/02/14 06:20:49;;;;;;;5.88;2.53;;;9.20;88.80;;;;;;4958365;28;20125;-73
2022/02/14 06:23:14;;;;;;;5.35;2.75;;;9.10;88.50;;;;;;4942686;28;20156;-74
2022/02/14 06:25:40;;;;;;;4.10;2.20;;;9.10;88.50;;;;;;4943898;28;20510;-71
2022/02/14 06:28:06;;;;;;;5.70;2.38;;;9.20;88.10;;;;;;4948032;28;20054;-74
2022/02/14 06:30:33;;;;;;;5.72;2.72;;;9.20;87.80;;;;;;4946529;28;20046;-77
2022/02/14 06:32:59;;;;;;;5.78;3.05;;;9.20;87.60;;;;;;4951285;28;20043;-73
2022/02/14 06:35:24;;;;;;;6.38;3.30;;;9.20;87.60;;;;;;4949617;28;20040;-77
2022/02/14 06:37:50;;;;;;;6.22;3.35;;;9.20;87.70;;;;;;4947868;28;20042;-75
2022/02/14 06:40:17;;;;;;;6.53;3.67;;;9.10;87.70;;;;;;4943625;28;20058;-75
2022/02/14 06:42:47;;;;;;;4.53;2.63;;;9.10;87.90;;;;;;4943610;28;20035;-74
2022/02/14 06:45:14;;;;;;;5.13;2.55;;;9.10;88.30;;;;;;4951903;28;20061;-76
2022/02/14 06:47:39;;;;;;;5.70;2.83;;;9.10;88.50;;;;;;4945956;28;20556;-71
2022/02/14 06:50:06;;;;;;;5.28;3.08;;;9.10;88.90;;;;;;4942111;28;21286;-69
2022/02/14 06:52:31;;;;;;;5.88;3.50;;;9.10;89.00;;;;;;4943052;28;20043;-70
2022/02/14 06:54:57;;;;;;;5.28;2.90;;;9.10;89.00;;;;;;4940951;28;20470;-74
2022/02/14 06:57:23;;;;;;;6.93;3.70;;;9.10;89.10;;;;;;4942611;28;20058;-74
2022/02/14 06:59:48;;;;;;;7.10;4.10;;;9.00;89.00;;;;;;4941398;28;20144;-72
2022/02/14 07:02:14;;;;;;;4.15;2.78;;;9.00;89.10;;;;;;4946562;28;20079;-70
2022/02/14 07:04:40;;;;;;;4.45;2.47;;;8.90;88.80;;;;;;4943985;28;20039;-71
2022/02/14 07:07:05;;;;;;;4.85;2.58;;;8.90;88.60;;;;;;4936833;28;20043;-70
2022/02/14 07:09:31;;;;;;;4.13;2.13;;;8.90;88.10;;;;;;4942284;28;20538;-73
2022/02/14 07:11:56;;;;;;;3.60;1.70;;;8.90;88.10;;;;;;4942996;28;20035;-74
2022/02/14 07:14:24;;;;;;;4.47;2.08;;;8.90;88.00;;;;;;4941684;28;20047;-70
2022/02/14 07:16:50;;;;;;;3.42;1.90;;;8.80;87.80;;;;;;4942488;28;20050;-69
2022/02/14 07:19:16;;;;;;;6.28;2.20;;;8.90;87.70;;;;;;4945299;28;20511;-73
2022/02/14 07:21:42;;;;;;;4.28;2.03;;;8.90;87.50;;;;;;4947005;28;20043;-71
2022/02/14 07:24:08;;;;;;;5.07;2.15;;;8.90;87.30;;;;;;4945782;28;20483;-69
2022/02/14 07:26:34;;;;;;;5.35;2.20;;;8.80;87.20;;;;;;4963050;28;20399;-72
2022/02/14 07:29:00;;;;;;;4.38;1.80;;;8.90;87.20;;;;;;4947836;28;20049;-70
2022/02/14 07:31:26;;;;;;;6.07;2.00;;;8.90;87.10;;;;;;4952499;28;20039;-72
2022/02/14 07:33:52;;;;;;;6.25;2.08;;;8.90;87.10;;;;;;4948872;28;20027;-69
2022/02/14 07:36:19;;;;;;;7.68;1.95;;;8.90;86.70;;;;;;4942998;28;20031;-71
2022/02/14 07:38:44;;;;;;;6.18;2.10;;;8.90;86.70;;;;;;4947691;28;20045;-70
2022/02/14 07:41:10;;;;;;;8.75;2.38;;;8.90;86.70;;;;;;4950912;28;20030;-69
2022/02/14 07:43:36;;;;;;;5.68;1.92;;;8.90;86.60;;;;;;4940574;28;20122;-71
2022/02/14 07:46:02;;;;;;;8.05;2.00;;;9.00;86.50;;;;;;4946459;28;20031;-69
2022/02/14 07:48:28;;;;;;;8.35;2.17;;;9.00;86.50;;;;;;4939227;28;20504;-73
2022/02/14 07:50:53;;;;;;;8.75;2.60;;;9.00;86.40;;;;;;4945071;28;20597;-74
2022/02/14 07:53:19;;;;;;;8.82;2.70;;;9.00;86.10;;;;;;4947211;28;20031;-70
2022/02/14 07:55:45;;;;;;;11.70;2.47;;;9.10;86.10;;;;;;4943671;28;20570;-72
2022/02/14 07:58:11;;;;;;;8.48;1.90;;;9.10;86.10;;;;;;4944833;28;20522;-74
2022/02/14 08:00:37;;;;;;;9.95;2.97;;;9.10;85.80;;;;;;4947758;28;20035;-69
2022/02/14 08:03:03;;;;;;;8.30;2.53;;;9.10;85.40;;;;;;4944774;28;20073;-74
2022/02/14 08:05:29;;;;;;;10.27;2.20;;;9.20;85.30;;;;;;4946605;28;20471;-74
2022/02/14 08:07:55;;;;;;;5.82;2.08;;;9.20;85.00;;;;;;4948575;28;20107;-70
2022/02/14 08:10:21;;;;;;;5.80;1.90;;;9.20;84.50;;;;;;4940697;28;20157;-73
2022/02/14 08:12:46;;;;;;;4.90;1.73;;;9.20;84.60;;;;;;4946273;28;20050;-74
2022/02/14 08:15:12;;;;;;;9.00;1.85;;;9.30;84.30;;;;;;4948831;28;20062;-70
2022/02/14 08:17:38;;;;;;;7.68;3.42;;;9.30;84.10;;;;;;4937058;28;20071;-71
2022/02/14 08:20:05;;;;;;;5.15;2.25;;;9.30;83.70;;;;;;4953911;28;20125;-69
2022/02/14 08:22:30;;;;;;;6.35;1.80;;;9.20;83.80;;;;;;4946737;28;20474;-75
2022/02/14 08:24:57;;;;;;;7.63;2.90;;;9.30;83.90;;;;;;4944712;28;20039;-70
2022/02/14 08:27:24;;;;;;;11.02;2.20;;;9.30;83.90;;;;;;4946032;28;20546;-69
2022/02/14 08:29:51;;;;;;;9.55;2.20;;;9.30;83.70;;;;;;4945318;28;20023;-69
2022/02/14 08:32:17;;;;;;;5.20;1.85;;;9.40;83.90;;;;;;4954535;28;20498;-71
2022/02/14 08:34:44;;;;;;;5.15;2.03;;;9.50;83.80;;;;;;4946254;28;20042;-75
2022/02/14 08:37:13;;;;;;;9.15;4.50;;;9.60;83.30;;;;;;4943888;28;20043;-76
2022/02/14 08:39:39;;;;;;;10.18;2.95;;;9.60;83.20;;;;;;4945508;28;20037;-70
2022/02/14 08:42:06;;;;;;;9.65;5.30;;;9.60;82.50;;;;;;4940637;28;20174;-74
2022/02/14 08:44:32;;;;;;;10.15;2.60;;;9.60;82.10;;;;;;4946957;28;20039;-74
2022/02/14 08:47:00;;;;;;;8.25;2.50;;;9.80;81.80;;;;;;4948559;28;20121;-74
2022/02/14 08:49:28;;;;;;;10.70;3.50;;;9.80;81.50;;;;;;4937358;28;20035;-73
2022/02/14 08:51:54;;;;;;;9.30;3.10;;;9.80;81.30;;;;;;4936572;28;20478;-70
2022/02/14 08:54:20;;;;;;;9.63;2.53;;;9.80;81.00;;;;;;4936040;28;20035;-73
2022/02/14 08:56:46;;;;;;;6.82;2.03;;;9.80;80.60;;;;;;4938015;28;20035;-69
2022/02/14 08:59:19;;;;;;;9.73;2.20;;;9.80;80.70;;;;;;4937108;28;20035;-74
2022/02/14 09:01:48;;;;;;;10.20;2.80;;;9.80;80.60;;;;;;4938467;28;20123;-74
2022/02/14 09:04:15;;;;;;;5.60;1.92;;;9.90;80.10;;;;;;4935212;28;20042;-73
2022/02/14 09:06:41;;;;;;;9.43;2.60;;;9.90;80.20;;;;;;4935131;28;20157;-78
2022/02/14 09:09:07;;;;;;;7.10;2.38;;;10.10;79.40;;;;;;4933552;28;20914;-72
2022/02/14 09:11:33;;;;;;;6.32;2.03;;;10.20;79.50;;;;;;4937752;28;20032;-74
2022/02/14 09:13:59;;;;;;;6.82;2.35;;;10.40;78.80;;;;;;4940728;28;20035;-76
2022/02/14 09:16:24;;;;;;;8.88;3.88;;;10.40;78.10;;;;;;4939601;28;20501;-75
2022/02/14 09:18:51;;;;;;;12.07;4.28;;;10.60;78.50;;;;;;4940807;28;20038;-80
2022/02/14 09:21:16;;;;;;;9.52;3.85;;;10.70;77.80;;;;;;4945918;28;20317;-73
2022/02/14 09:23:43;;;;;;;8.95;2.30;;;10.80;76.90;;;;;;4930409;28;20153;-78
2022/02/14 09:26:09;;;;;;;9.23;2.33;;;10.90;76.00;;;;;;4940759;28;20076;-72
2022/02/14 09:28:35;;;;;;;9.18;1.90;;;10.90;76.00;;;;;;4945950;28;20333;-72
2022/02/14 09:31:01;;;;;;;8.07;2.50;;;10.90;75.80;;;;;;4952992;28;20046;-76
2022/02/14 09:33:27;;;;;;;7.15;2.35;;;10.80;76.30;;;;;;4949358;28;20050;-74
2022/02/14 09:35:53;;;;;;;6.80;2.08;;;11.00;76.50;;;;;;4944920;28;20414;-75
2022/02/14 09:38:24;;;;;;;11.02;2.15;;;11.10;75.40;;;;;;4945593;28;20061;-77
2022/02/14 09:40:50;;;;;;;7.68;2.88;;;11.10;75.10;;;;;;4952806;28;20589;-71
2022/02/14 09:43:16;;;;;;;9.68;2.85;;;11.10;74.90;;;;;;4927734;28;20130;-73
2022/02/14 09:45:43;;;;;;;10.05;2.47;;;11.10;74.90;;;;;;4941766;28;20163;-71
2022/02/14 09:48:12;;;;;;;7.30;2.10;;;11.10;75.00;;;;;;4944257;28;20039;-75
2022/02/14 09:50:39;;;;;;;12.00;2.78;;;11.00;75.20;;;;;;4951226;28;20049;-71
2022/02/14 09:53:09;;;;;;;9.23;1.85;;;10.90;75.60;;;;;;4952954;28;20045;-72
2022/02/14 09:55:37;;;;;;;11.90;2.40;;;10.90;76.20;;;;;;4949633;28;20494;-72
2022/02/14 09:58:02;;;;;;;6.82;2.53;;;11.00;75.40;;;;;;4942695;28;20451;-76
2022/02/14 10:00:28;;;;;;;10.88;2.92;;;11.10;75.40;;;;;;4937650;28;20050;-73
2022/02/14 10:03:15;;;;;;;8.45;2.22;;;11.10;75.80;;;;;;4958920;28;20046;-73
2022/02/14 10:05:43;;;;;;;8.80;2.65;;;11.10;75.60;;;;;;4947114;28;20661;-73
2022/02/14 10:08:10;;;;;;;12.77;3.08;;;11.10;75.50;;;;;;4947068;28;20070;-74
2022/02/14 10:10:37;;;;;;;12.60;3.10;;;11.10;75.50;;;;;;4946289;28;20393;-70
2022/02/14 10:13:03;;;;;;;10.52;3.42;;;11.00;76.00;;;;;;4956458;28;20039;-69
2022/02/14 10:15:29;;;;;;;12.35;2.80;;;11.00;76.50;;;;;;4930487;28;20051;-69
2022/02/14 10:17:59;;;;;;;11.30;4.25;;;10.90;77.20;;;;;;4937320;28;20114;-72
2022/02/14 10:20:26;;;;;;;9.85;2.97;;;10.80;76.70;;;;;;4940010;28;20578;-72
2022/02/14 10:22:53;;;;;;;14.02;4.70;;;10.90;77.00;;;;;;4954522;28;20387;-69
2022/02/14 10:25:40;;;;;;;12.13;3.17;;;10.80;77.10;;;;;;4956993;28;20744;-71
2022/02/14 10:28:19;;;;;;;12.65;4.28;;;10.80;77.50;;;;;;4949256;28;20040;-70
2022/02/14 10:31:03;;;;;;;10.15;3.00;;;10.80;77.60;;;;;;4952731;28;20375;-74
2022/02/14 10:33:58;;;;;;;9.53;2.50;;;10.60;77.00;;;;;;4955223;28;20042;-73
2022/02/14 10:36:31;;;;;;;9.60;2.75;;;10.60;76.20;;;;;;4949422;28;20093;-73
2022/02/14 10:39:10;;;;;;;10.98;2.42;;;10.70;75.00;;;;;;4946497;28;20043;-69
2022/02/14 10:41:37;;;;;;;8.35;2.17;;;10.60;75.00;;;;;;4954856;28;20043;-71
2022/02/14 10:45:07;;;;;;;10.10;2.45;;;10.50;75.00;;;;;;4939370;28;20038;-69
2022/02/14 10:47:22;;;;;;;9.57;2.60;;;10.70;74.00;;;;;;4950365;28;20039;-71
2022/02/14 10:50:11;;;;;;;8.60;2.10;;;11.10;73.50;;;;;;4948619;28;20089;-70
2022/02/14 10:52:40;;;;;;;10.32;3.08;;;11.30;72.00;;;;;;4949889;28;20364;-72
2022/02/14 10:55:10;;;;;;;13.55;2.42;;;11.50;71.90;;;;;;4948512;28;20046;-71
2022/02/14 10:57:41;;;;;;;10.18;2.28;;;11.50;71.10;;;;;;4953013;28;20118;-72
2022/02/14 11:00:11;;;;;;;12.80;2.58;;;11.60;71.60;;;;;;4943488;28;20030;-71
2022/02/14 11:02:39;;;;;;;9.68;2.80;;;11.80;71.70;;;;;;4949095;28;20106;-73
2022/02/14 11:05:06;;;;;;;10.07;2.75;;;12.10;71.80;;;;;;4959818;28;20375;-71
2022/02/14 11:07:32;;;;;;;9.23;2.60;;;12.10;71.20;;;;;;4968417;28;20050;-74
2022/02/14 11:10:00;;;;;;;7.13;2.45;;;12.10;69.90;;;;;;4948302;28;20548;-74
2022/02/14 11:12:37;;;;;;;7.80;2.40;;;12.30;70.60;;;;;;4968512;28;20222;-73
2022/02/14 11:15:05;;;;;;;9.02;2.50;;;12.30;68.90;;;;;;4966679;28;20051;-72
2022/02/14 11:17:34;;;;;;;9.93;1.98;;;12.20;67.90;;;;;;4970071;28;20165;-75
2022/02/14 11:20:03;;;;;;;10.68;2.22;;;12.20;68.00;;;;;;4968993;28;20381;-71
2022/02/14 11:22:33;;;;;;;8.98;2.22;;;12.30;67.60;;;;;;4962685;28;20122;-75
2022/02/14 11:25:23;;;;;;;7.75;2.22;;;12.20;68.10;;;;;;4966578;28;20525;-71
2022/02/14 11:28:19;;;;;;;9.80;2.58;;;12.30;66.20;;;;;;4962378;28;20482;-72
2022/02/14 11:31:06;;;;;;;11.65;2.50;;;12.30;67.10;;;;;;4969235;28;20142;-72
2022/02/14 11:33:31;;;;;;;10.23;2.58;;;12.40;68.40;;;;;;4949283;28;20061;-74
2022/02/14 11:36:07;;;;;;;10.93;2.58;;;12.60;66.30;;;;;;4946366;28;20130;-72
2022/02/14 11:38:45;;;;;;;7.18;1.83;;;12.40;65.90;;;;;;4948333;28;20558;-73
2022/02/14 11:41:31;;;;;;;9.65;2.30;;;12.00;65.40;;;;;;4952798;28;20046;-73
2022/02/14 11:44:14;;;;;;;6.55;1.95;;;11.90;65.00;;;;;;4945602;28;20522;-70
2022/02/14 11:46:55;;;;;;;8.30;2.10;;;12.00;64.90;;;;;;4931674;28;20048;-73
2022/02/14 11:49:38;;;;;;;10.40;2.42;;;11.80;65.30;;;;;;4948082;28;20318;-70
2022/02/14 11:52:30;;;;;;;9.85;2.28;;;11.80;65.60;;;;;;4955452;28;20053;-72
2022/02/14 11:55:02;;;;;;;7.05;2.00;;;11.80;65.80;;;;;;4949328;28;20055;-72
2022/02/14 11:57:48;;;;;;;9.93;1.88;;;11.80;66.00;;;;;;4950079;28;20126;-71
2022/02/14 12:00:19;;;;;;;7.45;2.00;;;11.90;66.00;;;;;;4941098;28;20145;-72
2022/02/14 12:03:08;;;;;;;8.38;1.88;;;12.00;65.50;;;;;;4946676;28;20372;-69
2022/02/14 12:05:50;;;;;;;8.88;2.15;;;12.00;64.30;;;;;;4952140;28;20104;-73
2022/02/14 12:08:18;;;;;;;7.55;1.67;;;12.20;64.70;;;;;;4945805;28;20039;-70
2022/02/14 12:10:53;;;;;;;9.02;2.05;;;12.30;64.00;;;;;;4933797;28;20035;-76
2022/02/14 12:13:20;;;;;;;9.13;2.17;;;12.10;62.80;;;;;;4932524;28;20042;-74
2022/02/14 12:21:14;;;;;;;8.00;1.90;;;12.30;62.40;;;;;;4933088;28;20066;-70
2022/02/14 12:23:45;;;;;;;9.75;2.15;;;12.20;62.60;;;;;;4933301;28;20564;-73
2022/02/14 12:26:14;;;;;;;9.10;2.05;;;12.30;62.00;;;;;;4927196;28;20051;-72
2022/02/14 12:28:44;;;;;;;7.75;2.00;;;12.40;62.40;;;;;;4934584;28;20539;-72
2022/02/14 12:31:11;;;;;;;10.80;2.13;;;12.60;61.80;;;;;;4934597;28;20035;-76
2022/02/14 12:33:37;;;;;;;11.05;2.00;;;12.60;61.90;;;;;;4940557;28;20788;-68
2022/02/14 12:36:07;;;;;;;6.07;1.80;;;12.60;61.10;;;;;;4952291;28;20046;-72
2022/02/14 12:38:36;;;;;;;10.82;2.45;;;12.60;60.60;;;;;;4943628;28;20047;-69
2022/02/14 12:41:15;;;;;;;7.90;2.00;;;12.60;61.10;;;;;;4940406;28;20031;-70
2022/02/14 12:43:46;;;;;;;9.95;1.83;;;12.70;61.10;;;;;;4938860;28;20036;-70
2022/02/14 12:46:17;;;;;;;10.48;2.60;;;12.50;61.70;;;;;;4937271;28;20031;-72
2022/02/14 12:48:47;;;;;;;9.15;2.47;;;12.60;62.10;;;;;;4941280;28;20047;-71
2022/02/14 12:51:13;;;;;;;9.27;2.78;;;12.80;61.80;;;;;;4932508;28;20185;-69
2022/02/14 12:53:47;;;;;;;10.88;2.30;;;12.80;60.50;;;;;;4941219;28;20043;-76
2022/02/14 12:56:25;;;;;;;10.48;2.38;;;12.80;60.20;;;;;;4949384;28;20080;-71
2022/02/14 12:59:14;;;;;;;10.93;2.65;;;12.80;60.30;;;;;;4937118;28;20098;-72